createdAt,value
2022-08-21T00:00:48.192Z,81.80
2022-08-21T00:03:15.257Z,81.40
2022-08-21T00:05:48.435Z,82.30
2022-08-21T00:08:15.414Z,82.20
2022-08-21T00:10:43.646Z,82.00
2022-08-21T00:13:10.830Z,82.10
2022-08-21T00:15:38.306Z,82.70
2022-08-21T00:18:06.235Z,81.90
2022-08-21T00:20:33.746Z,83.40
2022-08-21T00:23:00.678Z,83.60
2022-08-21T00:25:27.879Z,83.10
2022-08-21T00:27:55.594Z,83.30
2022-08-21T00:30:23.671Z,84.30
2022-08-21T00:32:52.131Z,83.80
2022-08-21T00:35:20.412Z,85.00
2022-08-21T00:37:47.717Z,85.10
2022-08-21T00:40:18.632Z,85.50
2022-08-21T00:42:53.169Z,85.80
2022-08-21T00:45:22.463Z,86.50
2022-08-21T00:47:49.952Z,85.90
2022-08-21T00:50:22.006Z,85.70
2022-08-21T00:52:50.840Z,85.80
2022-08-21T00:55:17.804Z,86.00
2022-08-21T00:57:47.072Z,86.10
2022-08-21T01:00:19.741Z,85.10
2022-08-21T01:02:47.014Z,86.90
2022-08-21T01:05:13.940Z,87.20
2022-08-21T01:07:41.657Z,86.40
2022-08-21T01:10:09.119Z,87.00
2022-08-21T01:12:54.290Z,87.70
2022-08-21T01:15:21.478Z,87.00
2022-08-21T01:17:50.064Z,87.60
2022-08-21T01:20:17.576Z,87.90
2022-08-21T01:22:44.636Z,88.00
2022-08-21T01:25:12.939Z,87.30
2022-08-21T01:27:40.093Z,88.60
2022-08-21T01:30:12.334Z,88.50
2022-08-21T01:32:39.343Z,88.70
2022-08-21T01:35:06.999Z,88.70
2022-08-21T01:37:33.999Z,88.40
2022-08-21T01:40:00.952Z,88.80
2022-08-21T01:42:28.029Z,89.70
2022-08-21T01:44:56.261Z,89.70
2022-08-21T01:47:23.417Z,89.80
2022-08-21T01:49:50.481Z,90.00
2022-08-21T01:52:17.703Z,90.10
2022-08-21T01:54:44.670Z,90.00
2022-08-21T01:57:12.113Z,89.20
2022-08-21T01:59:39.126Z,90.00
2022-08-21T02:02:06.440Z,89.50
2022-08-21T02:04:33.695Z,90.20
2022-08-21T02:07:01.511Z,90.30
2022-08-21T02:09:29.446Z,90.50
2022-08-21T02:11:57.494Z,90.40
2022-08-21T02:14:31.950Z,90.00
2022-08-21T02:17:09.533Z,90.40
2022-08-21T02:19:40.464Z,90.50
2022-08-21T02:22:08.967Z,90.50
2022-08-21T02:24:36.316Z,90.70
2022-08-21T02:27:05.600Z,90.60
2022-08-21T02:29:32.566Z,90.60
2022-08-21T02:32:00.091Z,90.50
2022-08-21T02:34:29.395Z,90.60
2022-08-21T02:36:59.765Z,90.40
2022-08-21T02:39:27.838Z,90.30
2022-08-21T02:41:54.808Z,90.60
2022-08-21T02:44:21.749Z,90.50
2022-08-21T02:47:01.586Z,90.10
2022-08-21T02:49:28.655Z,90.10
2022-08-21T02:51:55.757Z,90.40
2022-08-21T02:54:22.662Z,90.20
2022-08-21T02:56:49.564Z,90.50
2022-08-21T02:59:16.458Z,90.50
2022-08-21T03:01:43.579Z,90.40
2022-08-21T03:04:10.534Z,90.30
2022-08-21T03:06:37.551Z,90.10
2022-08-21T03:09:04.666Z,90.40
2022-08-21T03:11:31.663Z,90.00
2022-08-21T03:13:58.572Z,90.10
2022-08-21T03:16:25.494Z,90.30
2022-08-21T03:18:52.633Z,90.30
2022-08-21T03:21:20.097Z,90.10
2022-08-21T03:23:47.617Z,89.10
2022-08-21T03:26:15.246Z,89.90
2022-08-21T03:28:43.092Z,89.50
2022-08-21T03:31:10.083Z,88.30
2022-08-21T03:33:37.000Z,88.90
2022-08-21T03:36:08.234Z,89.00
2022-08-21T03:38:35.433Z,90.10
2022-08-21T03:41:02.558Z,89.40
2022-08-21T03:43:32.229Z,90.10
2022-08-21T03:46:01.567Z,88.80
2022-08-21T03:48:28.467Z,88.20
2022-08-21T03:50:55.602Z,88.60
2022-08-21T03:53:22.704Z,89.80
2022-08-21T03:55:50.582Z,89.80
2022-08-21T03:58:18.666Z,90.00
2022-08-21T04:00:47.134Z,90.20
2022-08-21T04:03:14.074Z,90.20
2022-08-21T04:05:42.044Z,90.40
2022-08-21T04:08:09.229Z,90.70
2022-08-21T04:10:36.916Z,90.90
2022-08-21T04:13:04.605Z,91.10
2022-08-21T04:15:31.569Z,90.60
2022-08-21T04:17:58.467Z,91.20
2022-08-21T04:20:26.062Z,91.30
2022-08-21T04:22:53.168Z,91.50
2022-08-21T04:25:21.387Z,90.60
2022-08-21T04:27:48.658Z,90.30
2022-08-21T04:30:15.957Z,90.10
2022-08-21T04:32:50.155Z,90.90
2022-08-21T04:35:18.802Z,91.00
2022-08-21T04:37:45.851Z,91.30
2022-08-21T04:40:14.157Z,90.90
2022-08-21T04:42:52.045Z,91.60
2022-08-21T04:45:29.491Z,91.60
2022-08-21T04:47:59.001Z,92.10
2022-08-21T04:51:04.230Z,92.60
2022-08-21T04:53:38.067Z,92.60
2022-08-21T04:56:23.059Z,93.10
2022-08-21T04:58:50.617Z,92.80
2022-08-21T05:01:20.107Z,92.90
2022-08-21T05:03:47.983Z,93.00
2022-08-21T05:06:15.058Z,92.40
2022-08-21T05:08:42.161Z,92.10
2022-08-21T05:11:09.090Z,92.10
2022-08-21T05:13:36.600Z,92.60
2022-08-21T05:16:04.044Z,92.60
2022-08-21T05:18:31.139Z,92.80
2022-08-21T05:20:58.149Z,92.40
2022-08-21T05:23:25.949Z,92.10
2022-08-21T05:25:53.786Z,92.40
2022-08-21T05:28:20.850Z,92.00
2022-08-21T05:30:48.254Z,91.90
2022-08-21T05:33:15.345Z,91.80
2022-08-21T05:35:42.295Z,91.70
2022-08-21T05:38:16.663Z,91.50
2022-08-21T05:40:47.208Z,91.50
2022-08-21T05:43:14.362Z,91.40
2022-08-21T05:45:43.986Z,91.00
2022-08-21T05:48:20.518Z,90.80
2022-08-21T05:50:48.136Z,90.70
2022-08-21T05:53:15.554Z,90.70
2022-08-21T05:55:45.580Z,90.40
2022-08-21T05:58:18.517Z,90.20
2022-08-21T06:00:48.653Z,89.90
2022-08-21T06:03:22.201Z,89.90
2022-08-21T06:05:49.158Z,88.80
2022-08-21T06:08:17.283Z,88.50
2022-08-21T06:10:44.844Z,88.00
2022-08-21T06:13:12.060Z,88.00
2022-08-21T06:15:39.215Z,88.00
2022-08-21T06:18:06.416Z,87.40
2022-08-21T06:20:33.797Z,87.50
2022-08-21T06:23:00.884Z,87.00
2022-08-21T06:25:28.124Z,86.30
2022-08-21T06:28:00.977Z,86.30
2022-08-21T06:30:28.454Z,85.80
2022-08-21T06:32:55.402Z,84.50
2022-08-21T06:35:22.495Z,83.20
2022-08-21T06:37:49.628Z,82.40
2022-08-21T06:40:16.738Z,82.10
2022-08-21T06:42:45.720Z,81.70
2022-08-21T06:45:14.559Z,81.60
2022-08-21T06:47:41.563Z,81.00
2022-08-21T06:50:09.090Z,80.00
2022-08-21T06:52:37.017Z,81.00
2022-08-21T06:55:08.151Z,78.80
2022-08-21T06:57:35.156Z,78.80
2022-08-21T07:00:03.925Z,78.40
2022-08-21T07:02:30.864Z,78.30
2022-08-21T07:04:57.809Z,76.50
2022-08-21T07:07:24.701Z,76.00
2022-08-21T07:09:51.786Z,75.30
2022-08-21T07:12:18.799Z,75.90
2022-08-21T07:14:45.757Z,75.00
2022-08-21T07:17:12.683Z,76.40
2022-08-21T07:19:39.809Z,76.00
2022-08-21T07:22:07.321Z,73.70
2022-08-21T07:24:34.461Z,75.00
2022-08-21T07:27:01.422Z,73.60
2022-08-21T07:29:28.382Z,73.60
2022-08-21T07:31:55.494Z,73.60
2022-08-21T07:34:22.480Z,73.50
2022-08-21T07:36:49.435Z,74.00
2022-08-21T07:39:16.411Z,73.60
2022-08-21T07:41:43.305Z,73.50
2022-08-21T07:44:10.355Z,73.60
2022-08-21T07:46:39.645Z,73.50
2022-08-21T07:49:06.594Z,73.60
2022-08-21T07:51:34.678Z,73.60
2022-08-21T07:54:01.927Z,73.10
2022-08-21T07:56:29.178Z,73.10
2022-08-21T07:58:57.415Z,72.60
2022-08-21T08:01:24.910Z,73.00
2022-08-21T08:03:52.327Z,71.90
2022-08-21T08:06:20.239Z,72.90
2022-08-21T08:08:47.486Z,71.60
2022-08-21T08:11:17.409Z,71.10
2022-08-21T08:13:46.361Z,70.00
2022-08-21T08:16:13.652Z,70.10
2022-08-21T08:18:40.792Z,70.40
2022-08-21T08:21:07.981Z,68.60
2022-08-21T08:23:35.054Z,68.50
2022-08-21T08:26:03.759Z,70.10
2022-08-21T08:28:32.966Z,70.20
2022-08-21T08:31:00.714Z,68.80
2022-08-21T08:33:27.779Z,69.20
2022-08-21T08:35:54.769Z,68.80
2022-08-21T08:38:24.414Z,70.00
2022-08-21T08:41:03.782Z,69.50
2022-08-21T08:43:31.124Z,69.70
2022-08-21T08:45:59.013Z,69.70
2022-08-21T08:48:32.009Z,68.30
2022-08-21T08:50:59.166Z,68.40
2022-08-21T08:53:33.217Z,67.70
2022-08-21T08:56:01.392Z,66.40
2022-08-21T08:58:31.422Z,65.40
2022-08-21T09:00:58.535Z,65.10
2022-08-21T09:03:25.905Z,62.70
2022-08-21T09:06:04.910Z,62.30
2022-08-21T09:08:50.641Z,60.40
2022-08-21T09:11:33.737Z,59.20
2022-08-21T09:14:31.871Z,59.00
2022-08-21T09:17:13.098Z,58.00
2022-08-21T09:20:07.690Z,56.70
2022-08-21T09:23:01.983Z,59.20
2022-08-21T09:25:32.075Z,54.00
2022-08-21T09:27:59.165Z,54.50
2022-08-21T09:30:31.769Z,53.60
2022-08-21T09:32:59.097Z,54.80
2022-08-21T09:35:26.376Z,53.70
2022-08-21T09:38:06.570Z,55.00
2022-08-21T09:40:36.359Z,52.60
2022-08-21T09:43:15.908Z,52.40
2022-08-21T09:45:43.485Z,50.80
2022-08-21T09:48:16.009Z,51.50
2022-08-21T09:50:43.573Z,49.40
2022-08-21T09:53:25.219Z,50.00
2022-08-21T09:56:13.542Z,49.80
2022-08-21T09:58:42.065Z,48.40
2022-08-21T10:01:14.554Z,49.60
2022-08-21T10:03:41.625Z,47.30
2022-08-21T10:06:10.731Z,47.00
2022-08-21T10:08:41.612Z,48.10
2022-08-21T10:11:16.843Z,46.40
2022-08-21T10:13:55.121Z,45.70
2022-08-21T10:16:38.667Z,46.50
2022-08-21T10:19:23.791Z,47.50
2022-08-21T10:22:17.986Z,47.10
2022-08-21T10:25:02.505Z,47.60
2022-08-21T10:27:39.033Z,47.20
2022-08-21T10:30:14.645Z,48.00
2022-08-21T10:32:59.929Z,46.80
2022-08-21T10:35:31.764Z,46.10
2022-08-21T10:38:39.374Z,46.20
2022-08-21T10:41:15.923Z,46.10
2022-08-21T10:43:42.909Z,46.40
2022-08-21T10:46:21.598Z,47.10
2022-08-21T10:48:59.642Z,47.90
2022-08-21T10:51:29.116Z,47.10
2022-08-21T10:54:06.801Z,47.40
2022-08-21T10:56:37.194Z,47.40
2022-08-21T10:59:26.738Z,47.30
2022-08-21T11:02:08.698Z,46.60
2022-08-21T11:04:49.198Z,46.70
2022-08-21T11:07:36.421Z,47.10
2022-08-21T11:10:17.706Z,46.50
2022-08-21T11:12:51.696Z,47.10
2022-08-21T11:15:35.682Z,46.80
2022-08-21T11:18:28.021Z,47.60
2022-08-21T11:21:04.000Z,47.90
2022-08-21T11:23:39.391Z,48.50
2022-08-21T11:26:26.275Z,47.80
2022-08-21T11:28:55.814Z,48.00
2022-08-21T11:31:33.099Z,48.20
2022-08-21T11:34:30.614Z,47.60
2022-08-21T11:37:26.549Z,47.70
2022-08-21T11:40:26.325Z,48.90
2022-08-21T11:43:19.428Z,49.30
2022-08-21T11:45:53.164Z,49.50
2022-08-21T11:48:23.371Z,48.90
2022-08-21T11:50:50.302Z,48.90
2022-08-21T11:53:39.295Z,48.20
2022-08-21T11:56:10.427Z,47.80
2022-08-21T11:58:52.654Z,48.40
2022-08-21T12:01:36.930Z,47.30
2022-08-21T12:04:22.554Z,47.20
2022-08-21T12:06:53.257Z,47.90
2022-08-21T12:09:26.390Z,48.30
2022-08-21T12:12:03.950Z,48.10
2022-08-21T12:14:47.397Z,48.40
2022-08-21T12:17:25.412Z,48.30
2022-08-21T12:20:00.102Z,47.40
2022-08-21T12:22:41.688Z,47.40
2022-08-21T12:25:11.531Z,47.30
2022-08-21T12:27:48.602Z,47.70
2022-08-21T12:30:27.646Z,47.70
2022-08-21T12:33:31.773Z,47.00
2022-08-21T12:36:13.894Z,46.70
2022-08-21T12:38:54.143Z,47.00
2022-08-21T12:41:43.111Z,47.30
2022-08-21T12:44:18.479Z,45.60
2022-08-21T12:47:07.856Z,45.80
2022-08-21T12:49:45.106Z,45.00
2022-08-21T12:52:24.144Z,44.90
2022-08-21T12:54:51.270Z,44.80
2022-08-21T12:57:25.699Z,45.50
2022-08-21T12:59:57.265Z,45.20
2022-08-21T13:02:27.878Z,45.10
2022-08-21T13:04:56.521Z,45.60
2022-08-21T13:07:31.531Z,45.40
2022-08-21T13:10:04.406Z,45.10
2022-08-21T13:12:32.417Z,44.20
2022-08-21T13:15:02.348Z,43.90
2022-08-21T13:17:32.666Z,43.50
2022-08-21T13:20:25.508Z,44.10
2022-08-21T13:22:52.609Z,43.60
2022-08-21T13:25:21.639Z,44.90
2022-08-21T13:28:12.538Z,44.40
2022-08-21T13:30:50.925Z,44.30
2022-08-21T13:33:21.406Z,44.70
2022-08-21T13:35:57.654Z,44.20
2022-08-21T13:38:28.174Z,43.60
2022-08-21T13:40:59.710Z,43.30
2022-08-21T13:43:29.681Z,43.70
2022-08-21T13:45:56.865Z,43.50
2022-08-21T13:48:26.230Z,44.80
2022-08-21T13:50:53.296Z,44.80
2022-08-21T13:53:29.068Z,44.10
2022-08-21T13:56:00.410Z,42.90
2022-08-21T13:58:32.554Z,43.40
2022-08-21T14:01:00.530Z,43.80
2022-08-21T14:03:39.637Z,43.80
2022-08-21T14:06:23.431Z,43.70
2022-08-21T14:09:02.233Z,43.20
2022-08-21T14:11:33.222Z,43.70
2022-08-21T14:14:13.513Z,44.10
2022-08-21T14:17:01.986Z,43.60
2022-08-21T14:19:48.963Z,43.60
2022-08-21T14:22:40.879Z,43.90
2022-08-21T14:25:09.161Z,43.20
2022-08-21T14:27:38.013Z,43.60
2022-08-21T14:30:14.502Z,43.20
2022-08-21T14:32:44.916Z,43.20
2022-08-21T14:35:13.581Z,42.40
2022-08-21T14:37:44.300Z,42.70
2022-08-21T14:40:12.527Z,42.50
2022-08-21T14:42:43.833Z,42.90
2022-08-21T14:45:24.863Z,43.00
2022-08-21T14:47:55.662Z,42.90
2022-08-21T14:50:22.761Z,43.00
2022-08-21T14:52:50.271Z,42.60
2022-08-21T14:55:18.179Z,42.90
2022-08-21T14:57:46.870Z,42.50
2022-08-21T15:00:15.252Z,42.90
2022-08-21T15:02:42.228Z,42.90
2022-08-21T15:05:09.359Z,42.10
2022-08-21T15:07:36.391Z,42.50
2022-08-21T15:10:03.642Z,43.30
2022-08-21T15:12:30.562Z,42.90
2022-08-21T15:15:07.548Z,42.70
2022-08-21T15:17:35.055Z,41.80
2022-08-21T15:20:01.954Z,42.60
2022-08-21T15:22:29.022Z,42.80
2022-08-21T15:24:55.952Z,42.10
2022-08-21T15:27:22.992Z,42.80
2022-08-21T15:29:49.977Z,41.20
2022-08-21T15:32:23.483Z,41.00
2022-08-21T15:34:54.362Z,40.40
2022-08-21T15:37:21.452Z,41.40
2022-08-21T15:39:53.818Z,41.10
2022-08-21T15:42:21.470Z,41.00
2022-08-21T15:44:48.597Z,40.00
2022-08-21T15:47:22.633Z,40.00
2022-08-21T15:49:49.640Z,39.90
2022-08-21T15:52:17.946Z,40.80
2022-08-21T15:54:45.062Z,40.90
2022-08-21T15:57:14.036Z,41.60
2022-08-21T15:59:45.719Z,41.90
2022-08-21T16:02:32.913Z,41.70
2022-08-21T16:05:00.156Z,41.50
2022-08-21T16:07:27.124Z,42.00
2022-08-21T16:09:54.074Z,41.80
2022-08-21T16:12:26.278Z,41.50
2022-08-21T16:14:53.741Z,41.50
2022-08-21T16:17:22.026Z,42.00
2022-08-21T16:19:49.113Z,41.70
2022-08-21T16:22:16.074Z,41.60
2022-08-21T16:24:43.026Z,42.00
2022-08-21T16:27:10.001Z,41.60
2022-08-21T16:29:37.806Z,41.40
2022-08-21T16:32:06.601Z,41.40
2022-08-21T16:34:34.161Z,41.50
2022-08-21T16:37:01.146Z,40.90
2022-08-21T16:39:28.326Z,41.00
2022-08-21T16:41:55.253Z,41.00
2022-08-21T16:44:22.205Z,41.00
2022-08-21T16:46:49.931Z,40.80
2022-08-21T16:49:16.977Z,41.20
2022-08-21T16:51:44.011Z,41.00
2022-08-21T16:54:11.687Z,41.30
2022-08-21T16:56:40.381Z,44.80
2022-08-21T16:59:08.358Z,46.80
2022-08-21T17:01:35.379Z,47.10
2022-08-21T17:04:03.452Z,47.60
2022-08-21T17:06:31.276Z,48.30
2022-08-21T17:08:59.661Z,48.50
2022-08-21T17:11:38.479Z,49.20
2022-08-21T17:14:13.775Z,49.50
2022-08-21T17:16:42.205Z,49.80
2022-08-21T17:19:09.213Z,49.30
2022-08-21T17:21:36.190Z,49.60
2022-08-21T17:24:03.471Z,49.40
2022-08-21T17:26:30.436Z,49.70
2022-08-21T17:28:57.429Z,49.30
2022-08-21T17:31:24.586Z,49.40
2022-08-21T17:33:53.386Z,49.90
2022-08-21T17:36:21.818Z,49.90
2022-08-21T17:38:48.832Z,50.40
2022-08-21T17:41:16.201Z,50.40
2022-08-21T17:43:43.268Z,50.70
2022-08-21T17:46:12.142Z,50.40
2022-08-21T17:48:39.074Z,50.30
2022-08-21T17:51:09.506Z,50.30
2022-08-21T17:53:41.223Z,51.20
2022-08-21T17:56:08.167Z,52.10
2022-08-21T17:58:35.374Z,52.60
2022-08-21T18:01:05.857Z,52.70
2022-08-21T18:03:38.488Z,53.30
2022-08-21T18:06:05.841Z,53.10
2022-08-21T18:08:33.208Z,53.50
2022-08-21T18:11:00.249Z,54.10
2022-08-21T18:13:30.784Z,53.90
2022-08-21T18:15:57.914Z,53.70
2022-08-21T18:18:25.446Z,54.50
2022-08-21T18:20:53.654Z,54.40
2022-08-21T18:23:20.630Z,54.50
2022-08-21T18:26:07.615Z,54.60
2022-08-21T18:28:35.999Z,54.80
2022-08-21T18:31:02.947Z,55.70
2022-08-21T18:33:29.986Z,55.80
2022-08-21T18:35:56.932Z,55.10
2022-08-21T18:38:24.993Z,55.50
2022-08-21T18:40:55.919Z,55.60
2022-08-21T18:43:23.137Z,56.30
2022-08-21T18:45:50.153Z,57.10
2022-08-21T18:48:17.931Z,57.80
2022-08-21T18:50:45.677Z,58.20
2022-08-21T18:53:18.042Z,58.30
2022-08-21T18:55:54.834Z,58.30
2022-08-21T18:58:24.201Z,58.00
2022-08-21T19:00:51.586Z,58.00
2022-08-21T19:03:23.938Z,58.70
2022-08-21T19:05:52.626Z,58.70
2022-08-21T19:08:21.409Z,58.60
2022-08-21T19:10:49.852Z,59.50
2022-08-21T19:13:18.660Z,61.10
2022-08-21T19:15:49.891Z,61.20
2022-08-21T19:18:18.073Z,63.00
2022-08-21T19:20:47.421Z,63.60
2022-08-21T19:23:15.820Z,62.90
2022-08-21T19:25:45.102Z,62.90
2022-08-21T19:28:15.794Z,63.10
2022-08-21T19:30:55.366Z,63.20
2022-08-21T19:33:29.550Z,63.50
2022-08-21T19:35:56.659Z,64.50
2022-08-21T19:38:23.725Z,65.10
2022-08-21T19:40:50.723Z,66.30
2022-08-21T19:43:22.493Z,64.90
2022-08-21T19:45:52.824Z,65.30
2022-08-21T19:48:20.287Z,66.20
2022-08-21T19:50:47.258Z,65.20
2022-08-21T19:53:14.153Z,66.30
2022-08-21T19:55:44.928Z,66.20
2022-08-21T19:58:42.406Z,66.70
2022-08-21T20:01:16.369Z,67.40
2022-08-21T20:03:44.835Z,67.80
2022-08-21T20:06:21.163Z,67.80
2022-08-21T20:08:51.595Z,67.30
2022-08-21T20:11:31.338Z,66.60
2022-08-21T20:13:59.021Z,67.80
2022-08-21T20:16:28.012Z,67.00
2022-08-21T20:18:55.375Z,67.90
2022-08-21T20:21:22.469Z,67.70
2022-08-21T20:23:50.243Z,69.00
2022-08-21T20:26:18.714Z,68.10
2022-08-21T20:28:46.032Z,68.90
2022-08-21T20:31:19.620Z,67.90
2022-08-21T20:33:49.470Z,68.00
2022-08-21T20:36:34.972Z,68.90
2022-08-21T20:39:06.899Z,69.80
2022-08-21T20:41:36.315Z,68.70
2022-08-21T20:44:03.944Z,68.50
2022-08-21T20:46:31.621Z,69.60
2022-08-21T20:49:00.933Z,69.90
2022-08-21T20:51:35.801Z,70.30
2022-08-21T20:54:18.062Z,70.00
2022-08-21T20:56:51.145Z,70.70
2022-08-21T20:59:35.119Z,70.40
2022-08-21T21:02:43.036Z,70.30
2022-08-21T21:05:15.065Z,70.70
2022-08-21T21:08:03.402Z,70.50
2022-08-21T21:10:44.779Z,70.80
2022-08-21T21:13:21.828Z,71.00
2022-08-21T21:15:51.510Z,70.90
2022-08-21T21:18:33.111Z,70.50
2022-08-21T21:21:11.440Z,71.30
2022-08-21T21:23:38.367Z,71.60
2022-08-21T21:26:30.744Z,71.70
2022-08-21T21:29:24.763Z,72.00
2022-08-21T21:31:52.731Z,72.00
2022-08-21T21:34:21.657Z,72.20
2022-08-21T21:37:02.737Z,71.80
2022-08-21T21:39:44.720Z,72.30
2022-08-21T21:42:31.399Z,71.70
2022-08-21T21:45:04.370Z,72.40
2022-08-21T21:47:43.746Z,72.60
2022-08-21T21:50:19.757Z,72.80
2022-08-21T21:53:12.849Z,72.70
2022-08-21T21:56:00.227Z,73.00
2022-08-21T21:58:54.620Z,72.20
2022-08-21T22:01:45.454Z,72.80
2022-08-21T22:04:38.366Z,72.80
2022-08-21T22:07:08.129Z,72.70
2022-08-21T22:09:51.152Z,72.80
2022-08-21T22:12:27.995Z,73.40
2022-08-21T22:14:55.211Z,73.70
2022-08-21T22:17:31.135Z,73.40
2022-08-21T22:19:58.377Z,73.30
2022-08-21T22:22:26.422Z,72.60
2022-08-21T22:24:54.388Z,71.70
2022-08-21T22:27:29.059Z,72.10
2022-08-21T22:29:59.560Z,72.30
2022-08-21T22:32:37.674Z,71.60
2022-08-21T22:35:14.189Z,72.10
2022-08-21T22:37:47.728Z,72.30
2022-08-21T22:43:22.454Z,74.30
2022-08-21T22:46:04.281Z,75.50
2022-08-21T22:48:37.340Z,75.80
2022-08-21T22:51:08.019Z,74.90
2022-08-21T22:53:36.709Z,74.10
2022-08-21T22:56:05.291Z,74.70
2022-08-21T22:58:52.839Z,73.90
2022-08-21T23:01:22.867Z,73.70
2022-08-21T23:03:54.425Z,73.50
2022-08-21T23:06:44.832Z,73.10
2022-08-21T23:09:21.084Z,74.60
2022-08-21T23:11:50.870Z,75.70
2022-08-21T23:14:18.671Z,76.90
2022-08-21T23:16:57.906Z,77.00
2022-08-21T23:19:38.140Z,77.20
2022-08-21T23:22:28.382Z,76.60
2022-08-21T23:25:24.592Z,77.10
2022-08-21T23:28:10.791Z,77.50
2022-08-21T23:30:55.460Z,78.40
2022-08-21T23:33:53.671Z,80.80
2022-08-21T23:37:15.327Z,80.70
2022-08-21T23:39:52.015Z,82.10
2022-08-21T23:42:28.574Z,81.50
2022-08-21T23:48:05.135Z,83.10
2022-08-21T23:50:40.826Z,82.90
2022-08-21T23:53:25.996Z,82.20
2022-08-21T23:56:14.782Z,82.40
2022-08-21T23:58:50.830Z,81.80
